sensor_id;sensor_type;location;lat;lon;timestamp;P1;durP1;ratioP1;P2;durP2;ratioP2
24461;SDS011;12631;50.860;5.714;2022-12-07T00:02:07;11.65;;;6.75;;
24461;SDS011;12631;50.860;5.714;2022-12-07T00:04:34;6.82;;;6.13;;
24461;SDS011;12631;50.860;5.714;2022-12-07T00:07:01;8.00;;;6.97;;
24461;SDS011;12631;50.860;5.714;2022-12-07T00:09:29;7.25;;;5.97;;
24461;SDS011;12631;50.860;5.714;2022-12-07T00:11:57;12.40;;;7.45;;
24461;SDS011;12631;50.860;5.714;2022-12-07T00:14:25;8.15;;;5.45;;
24461;SDS011;12631;50.860;5.714;2022-12-07T00:16:52;5.32;;;4.97;;
24461;SDS011;12631;50.860;5.714;2022-12-07T00:19:19;9.82;;;6.22;;
24461;SDS011;12631;50.860;5.714;2022-12-07T00:21:46;11.10;;;7.03;;
24461;SDS011;12631;50.860;5.714;2022-12-07T00:24:14;7.32;;;6.70;;
24461;SDS011;12631;50.860;5.714;2022-12-07T00:26:41;9.05;;;7.13;;
24461;SDS011;12631;50.860;5.714;2022-12-07T00:29:11;7.60;;;6.80;;
24461;SDS011;12631;50.860;5.714;2022-12-07T00:31:41;8.48;;;7.60;;
24461;SDS011;12631;50.860;5.714;2022-12-07T00:36:38;9.13;;;8.23;;
24461;SDS011;12631;50.860;5.714;2022-12-07T00:39:06;9.18;;;8.27;;
24461;SDS011;12631;50.860;5.714;2022-12-07T00:41:33;9.88;;;8.60;;
24461;SDS011;12631;50.860;5.714;2022-12-07T00:44:00;9.10;;;8.20;;
24461;SDS011;12631;50.860;5.714;2022-12-07T00:46:30;11.07;;;9.00;;
24461;SDS011;12631;50.860;5.714;2022-12-07T00:48:57;14.20;;;8.93;;
24461;SDS011;12631;50.860;5.714;2022-12-07T00:51:24;11.02;;;9.20;;
24461;SDS011;12631;50.860;5.714;2022-12-07T00:53:52;12.93;;;8.25;;
24461;SDS011;12631;50.860;5.714;2022-12-07T00:56:21;11.20;;;9.98;;
24461;SDS011;12631;50.860;5.714;2022-12-07T00:58:49;12.23;;;9.05;;
24461;SDS011;12631;50.860;5.714;2022-12-07T01:01:17;8.60;;;7.70;;
24461;SDS011;12631;50.860;5.714;2022-12-07T01:03:46;9.75;;;8.43;;
24461;SDS011;12631;50.860;5.714;2022-12-07T01:06:14;10.30;;;7.68;;
24461;SDS011;12631;50.860;5.714;2022-12-07T01:08:42;9.48;;;8.40;;
24461;SDS011;12631;50.860;5.714;2022-12-07T01:11:12;10.40;;;7.32;;
24461;SDS011;12631;50.860;5.714;2022-12-07T01:13:40;15.23;;;7.72;;
24461;SDS011;12631;50.860;5.714;2022-12-07T01:16:08;9.90;;;7.70;;
24461;SDS011;12631;50.860;5.714;2022-12-07T01:18:38;9.65;;;8.25;;
24461;SDS011;12631;50.860;5.714;2022-12-07T01:21:07;13.27;;;6.85;;
24461;SDS011;12631;50.860;5.714;2022-12-07T01:23:37;9.60;;;7.18;;
24461;SDS011;12631;50.860;5.714;2022-12-07T01:26:06;9.65;;;6.35;;
24461;SDS011;12631;50.860;5.714;2022-12-07T01:28:36;8.27;;;7.47;;
24461;SDS011;12631;50.860;5.714;2022-12-07T01:31:04;11.68;;;7.47;;
24461;SDS011;12631;50.860;5.714;2022-12-07T01:33:33;9.15;;;7.38;;
24461;SDS011;12631;50.860;5.714;2022-12-07T01:36:02;12.38;;;8.82;;
24461;SDS011;12631;50.860;5.714;2022-12-07T01:38:32;10.80;;;9.57;;
24461;SDS011;12631;50.860;5.714;2022-12-07T01:41:00;12.88;;;8.05;;
24461;SDS011;12631;50.860;5.714;2022-12-07T01:43:29;8.82;;;7.90;;
24461;SDS011;12631;50.860;5.714;2022-12-07T01:45:58;10.75;;;8.45;;
24461;SDS011;12631;50.860;5.714;2022-12-07T01:48:26;12.18;;;9.38;;
24461;SDS011;12631;50.860;5.714;2022-12-07T01:50:59;10.50;;;7.53;;
24461;SDS011;12631;50.860;5.714;2022-12-07T01:53:28;13.93;;;8.15;;
24461;SDS011;12631;50.860;5.714;2022-12-07T01:56:00;12.75;;;7.55;;
24461;SDS011;12631;50.860;5.714;2022-12-07T01:58:27;8.23;;;7.15;;
24461;SDS011;12631;50.860;5.714;2022-12-07T02:00:55;16.25;;;10.05;;
24461;SDS011;12631;50.860;5.714;2022-12-07T02:03:24;9.73;;;8.15;;
24461;SDS011;12631;50.860;5.714;2022-12-07T02:05:56;10.73;;;8.50;;
24461;SDS011;12631;50.860;5.714;2022-12-07T02:08:24;9.68;;;7.90;;
24461;SDS011;12631;50.860;5.714;2022-12-07T02:10:53;10.52;;;8.48;;
24461;SDS011;12631;50.860;5.714;2022-12-07T02:13:21;12.73;;;9.32;;
24461;SDS011;12631;50.860;5.714;2022-12-07T02:15:55;15.75;;;10.02;;
24461;SDS011;12631;50.860;5.714;2022-12-07T02:18:34;11.48;;;8.75;;
24461;SDS011;12631;50.860;5.714;2022-12-07T02:21:25;10.65;;;8.80;;
24461;SDS011;12631;50.860;5.714;2022-12-07T02:29:54;16.02;;;8.45;;
24461;SDS011;12631;50.860;5.714;2022-12-07T02:32:26;17.33;;;8.63;;
24461;SDS011;12631;50.860;5.714;2022-12-07T02:35:01;8.23;;;7.38;;
24461;SDS011;12631;50.860;5.714;2022-12-07T02:37:34;10.68;;;8.10;;
24461;SDS011;12631;50.860;5.714;2022-12-07T02:40:06;10.50;;;7.45;;
24461;SDS011;12631;50.860;5.714;2022-12-07T02:42:40;13.75;;;8.02;;
24461;SDS011;12631;50.860;5.714;2022-12-07T02:45:13;6.45;;;5.80;;
24461;SDS011;12631;50.860;5.714;2022-12-07T02:47:44;12.52;;;8.30;;
24461;SDS011;12631;50.860;5.714;2022-12-07T02:50:15;11.20;;;7.85;;
24461;SDS011;12631;50.860;5.714;2022-12-07T02:52:45;9.57;;;8.50;;
24461;SDS011;12631;50.860;5.714;2022-12-07T02:55:12;11.55;;;9.40;;
24461;SDS011;12631;50.860;5.714;2022-12-07T02:57:48;10.90;;;8.57;;
24461;SDS011;12631;50.860;5.714;2022-12-07T03:00:31;13.50;;;8.43;;
24461;SDS011;12631;50.860;5.714;2022-12-07T03:03:11;10.38;;;7.97;;
24461;SDS011;12631;50.860;5.714;2022-12-07T03:05:44;10.40;;;8.75;;
24461;SDS011;12631;50.860;5.714;2022-12-07T03:08:38;11.32;;;9.70;;
24461;SDS011;12631;50.860;5.714;2022-12-07T03:11:14;11.68;;;8.70;;
24461;SDS011;12631;50.860;5.714;2022-12-07T03:13:46;9.43;;;8.32;;
24461;SDS011;12631;50.860;5.714;2022-12-07T03:16:19;12.02;;;8.02;;
24461;SDS011;12631;50.860;5.714;2022-12-07T03:18:50;14.60;;;7.07;;
24461;SDS011;12631;50.860;5.714;2022-12-07T03:21:22;9.73;;;8.75;;
24461;SDS011;12631;50.860;5.714;2022-12-07T03:23:53;8.25;;;7.45;;
24461;SDS011;12631;50.860;5.714;2022-12-07T03:26:24;10.70;;;7.82;;
24461;SDS011;12631;50.860;5.714;2022-12-07T03:28:58;9.80;;;8.27;;
24461;SDS011;12631;50.860;5.714;2022-12-07T03:31:33;15.07;;;9.05;;
24461;SDS011;12631;50.860;5.714;2022-12-07T03:34:05;12.30;;;9.43;;
24461;SDS011;12631;50.860;5.714;2022-12-07T03:36:38;12.30;;;8.52;;
24461;SDS011;12631;50.860;5.714;2022-12-07T03:39:13;12.52;;;9.45;;
24461;SDS011;12631;50.860;5.714;2022-12-07T03:41:48;12.38;;;9.13;;
24461;SDS011;12631;50.860;5.714;2022-12-07T03:44:16;17.35;;;9.00;;
24461;SDS011;12631;50.860;5.714;2022-12-07T03:46:47;14.15;;;9.32;;
24461;SDS011;12631;50.860;5.714;2022-12-07T03:49:23;14.85;;;9.45;;
24461;SDS011;12631;50.860;5.714;2022-12-07T03:51:55;19.17;;;10.30;;
24461;SDS011;12631;50.860;5.714;2022-12-07T03:54:28;16.35;;;10.57;;
24461;SDS011;12631;50.860;5.714;2022-12-07T03:56:58;15.00;;;11.70;;
24461;SDS011;12631;50.860;5.714;2022-12-07T03:59:29;12.57;;;10.50;;
24461;SDS011;12631;50.860;5.714;2022-12-07T04:02:02;18.50;;;13.35;;
24461;SDS011;12631;50.860;5.714;2022-12-07T04:04:31;19.50;;;13.68;;
24461;SDS011;12631;50.860;5.714;2022-12-07T04:06:58;19.65;;;13.10;;
24461;SDS011;12631;50.860;5.714;2022-12-07T04:09:26;18.63;;;12.35;;
24461;SDS011;12631;50.860;5.714;2022-12-07T04:11:54;17.52;;;12.27;;
24461;SDS011;12631;50.860;5.714;2022-12-07T04:14:21;22.05;;;13.52;;
24461;SDS011;12631;50.860;5.714;2022-12-07T04:16:49;19.83;;;15.35;;
24461;SDS011;12631;50.860;5.714;2022-12-07T04:19:20;16.27;;;12.32;;
24461;SDS011;12631;50.860;5.714;2022-12-07T04:21:47;19.92;;;14.55;;
24461;SDS011;12631;50.860;5.714;2022-12-07T04:24:15;21.23;;;14.02;;
24461;SDS011;12631;50.860;5.714;2022-12-07T04:26:43;14.07;;;11.48;;
24461;SDS011;12631;50.860;5.714;2022-12-07T04:29:11;14.23;;;11.13;;
24461;SDS011;12631;50.860;5.714;2022-12-07T04:31:39;17.13;;;12.50;;
24461;SDS011;12631;50.860;5.714;2022-12-07T04:34:07;15.75;;;10.80;;
24461;SDS011;12631;50.860;5.714;2022-12-07T04:36:36;16.15;;;11.70;;
24461;SDS011;12631;50.860;5.714;2022-12-07T04:39:03;19.17;;;11.30;;
24461;SDS011;12631;50.860;5.714;2022-12-07T04:41:32;12.43;;;9.35;;
24461;SDS011;12631;50.860;5.714;2022-12-07T04:44:00;14.65;;;9.48;;
24461;SDS011;12631;50.860;5.714;2022-12-07T04:46:28;17.17;;;11.88;;
24461;SDS011;12631;50.860;5.714;2022-12-07T04:48:57;15.68;;;10.95;;
24461;SDS011;12631;50.860;5.714;2022-12-07T04:51:26;17.95;;;11.48;;
24461;SDS011;12631;50.860;5.714;2022-12-07T04:53:56;20.10;;;12.02;;
24461;SDS011;12631;50.860;5.714;2022-12-07T04:56:24;16.90;;;11.73;;
24461;SDS011;12631;50.860;5.714;2022-12-07T04:58:52;19.15;;;11.80;;
24461;SDS011;12631;50.860;5.714;2022-12-07T05:01:20;25.00;;;11.80;;
24461;SDS011;12631;50.860;5.714;2022-12-07T05:03:48;14.52;;;11.20;;
24461;SDS011;12631;50.860;5.714;2022-12-07T05:06:15;21.38;;;9.50;;
24461;SDS011;12631;50.860;5.714;2022-12-07T05:08:43;14.25;;;10.05;;
24461;SDS011;12631;50.860;5.714;2022-12-07T05:11:11;27.42;;;11.85;;
24461;SDS011;12631;50.860;5.714;2022-12-07T05:14:00;15.32;;;10.98;;
24461;SDS011;12631;50.860;5.714;2022-12-07T05:16:27;21.17;;;14.05;;
24461;SDS011;12631;50.860;5.714;2022-12-07T05:18:55;13.35;;;10.68;;
24461;SDS011;12631;50.860;5.714;2022-12-07T05:21:22;22.02;;;12.38;;
24461;SDS011;12631;50.860;5.714;2022-12-07T05:23:49;22.08;;;11.25;;
24461;SDS011;12631;50.860;5.714;2022-12-07T05:26:18;16.08;;;9.70;;
24461;SDS011;12631;50.860;5.714;2022-12-07T05:28:49;13.82;;;10.30;;
24461;SDS011;12631;50.860;5.714;2022-12-07T05:31:17;16.85;;;9.93;;
24461;SDS011;12631;50.860;5.714;2022-12-07T05:33:44;16.48;;;10.52;;
24461;SDS011;12631;50.860;5.714;2022-12-07T05:36:11;10.52;;;9.02;;
24461;SDS011;12631;50.860;5.714;2022-12-07T05:38:39;19.13;;;12.07;;
24461;SDS011;12631;50.860;5.714;2022-12-07T05:41:07;15.60;;;10.68;;
24461;SDS011;12631;50.860;5.714;2022-12-07T05:43:58;13.23;;;10.75;;
24461;SDS011;12631;50.860;5.714;2022-12-07T05:46:25;16.50;;;11.20;;
24461;SDS011;12631;50.860;5.714;2022-12-07T05:48:52;16.83;;;9.50;;
24461;SDS011;12631;50.860;5.714;2022-12-07T05:51:19;14.82;;;10.90;;
24461;SDS011;12631;50.860;5.714;2022-12-07T05:53:46;12.68;;;10.68;;
24461;SDS011;12631;50.860;5.714;2022-12-07T05:56:14;15.43;;;10.27;;
24461;SDS011;12631;50.860;5.714;2022-12-07T05:58:41;19.15;;;11.85;;
24461;SDS011;12631;50.860;5.714;2022-12-07T06:01:27;11.43;;;9.38;;
24461;SDS011;12631;50.860;5.714;2022-12-07T06:03:54;21.13;;;11.93;;
24461;SDS011;12631;50.860;5.714;2022-12-07T06:06:21;20.63;;;12.57;;
24461;SDS011;12631;50.860;5.714;2022-12-07T06:08:49;14.48;;;11.80;;
24461;SDS011;12631;50.860;5.714;2022-12-07T06:11:16;15.95;;;10.73;;
24461;SDS011;12631;50.860;5.714;2022-12-07T06:14:00;14.88;;;12.18;;
24461;SDS011;12631;50.860;5.714;2022-12-07T06:16:29;14.27;;;12.30;;
24461;SDS011;12631;50.860;5.714;2022-12-07T06:18:56;12.52;;;9.27;;
24461;SDS011;12631;50.860;5.714;2022-12-07T06:21:24;15.73;;;11.20;;
24461;SDS011;12631;50.860;5.714;2022-12-07T06:23:52;11.15;;;9.95;;
24461;SDS011;12631;50.860;5.714;2022-12-07T06:26:19;20.05;;;12.55;;
24461;SDS011;12631;50.860;5.714;2022-12-07T06:28:46;21.48;;;10.93;;
24461;SDS011;12631;50.860;5.714;2022-12-07T06:31:14;11.27;;;9.02;;
24461;SDS011;12631;50.860;5.714;2022-12-07T06:33:42;14.82;;;10.60;;
24461;SDS011;12631;50.860;5.714;2022-12-07T06:36:10;14.90;;;11.32;;
24461;SDS011;12631;50.860;5.714;2022-12-07T06:38:38;18.90;;;11.82;;
24461;SDS011;12631;50.860;5.714;2022-12-07T06:41:05;12.82;;;9.82;;
24461;SDS011;12631;50.860;5.714;2022-12-07T06:43:32;16.00;;;10.45;;
24461;SDS011;12631;50.860;5.714;2022-12-07T06:46:00;19.30;;;12.40;;
24461;SDS011;12631;50.860;5.714;2022-12-07T06:48:27;13.10;;;10.80;;
24461;SDS011;12631;50.860;5.714;2022-12-07T06:50:56;15.07;;;9.60;;
24461;SDS011;12631;50.860;5.714;2022-12-07T06:53:23;20.55;;;13.27;;
24461;SDS011;12631;50.860;5.714;2022-12-07T06:55:50;14.15;;;10.18;;
24461;SDS011;12631;50.860;5.714;2022-12-07T06:58:18;7.72;;;6.70;;
24461;SDS011;12631;50.860;5.714;2022-12-07T07:00:45;18.13;;;12.07;;
24461;SDS011;12631;50.860;5.714;2022-12-07T07:03:14;14.25;;;11.32;;
24461;SDS011;12631;50.860;5.714;2022-12-07T07:05:41;15.43;;;11.48;;
24461;SDS011;12631;50.860;5.714;2022-12-07T07:08:10;16.33;;;10.77;;
24461;SDS011;12631;50.860;5.714;2022-12-07T07:10:38;14.40;;;10.07;;
24461;SDS011;12631;50.860;5.714;2022-12-07T07:13:06;17.90;;;10.57;;
24461;SDS011;12631;50.860;5.714;2022-12-07T07:15:33;12.20;;;9.07;;
24461;SDS011;12631;50.860;5.714;2022-12-07T07:18:03;14.48;;;9.55;;
24461;SDS011;12631;50.860;5.714;2022-12-07T07:20:30;16.98;;;11.75;;
24461;SDS011;12631;50.860;5.714;2022-12-07T07:22:58;15.55;;;10.77;;
24461;SDS011;12631;50.860;5.714;2022-12-07T07:25:26;17.73;;;11.68;;
24461;SDS011;12631;50.860;5.714;2022-12-07T07:27:54;20.75;;;12.63;;
24461;SDS011;12631;50.860;5.714;2022-12-07T07:30:21;21.80;;;12.65;;
24461;SDS011;12631;50.860;5.714;2022-12-07T07:32:49;20.42;;;13.52;;
24461;SDS011;12631;50.860;5.714;2022-12-07T07:35:16;24.63;;;14.27;;
24461;SDS011;12631;50.860;5.714;2022-12-07T07:37:43;19.40;;;14.70;;
24461;SDS011;12631;50.860;5.714;2022-12-07T07:40:10;18.17;;;10.88;;
24461;SDS011;12631;50.860;5.714;2022-12-07T07:42:39;17.98;;;12.55;;
24461;SDS011;12631;50.860;5.714;2022-12-07T07:45:07;14.45;;;11.55;;
24461;SDS011;12631;50.860;5.714;2022-12-07T07:47:35;15.68;;;12.02;;
24461;SDS011;12631;50.860;5.714;2022-12-07T07:50:02;13.98;;;10.95;;
24461;SDS011;12631;50.860;5.714;2022-12-07T07:52:30;14.75;;;11.23;;
24461;SDS011;12631;50.860;5.714;2022-12-07T07:54:58;20.55;;;12.25;;
24461;SDS011;12631;50.860;5.714;2022-12-07T07:57:25;21.17;;;11.82;;
24461;SDS011;12631;50.860;5.714;2022-12-07T07:59:54;16.52;;;12.20;;
24461;SDS011;12631;50.860;5.714;2022-12-07T08:02:21;26.15;;;13.57;;
24461;SDS011;12631;50.860;5.714;2022-12-07T08:04:49;14.10;;;12.02;;
24461;SDS011;12631;50.860;5.714;2022-12-07T08:07:16;18.48;;;11.52;;
24461;SDS011;12631;50.860;5.714;2022-12-07T08:09:44;27.40;;;14.25;;
24461;SDS011;12631;50.860;5.714;2022-12-07T08:12:11;17.23;;;11.75;;
24461;SDS011;12631;50.860;5.714;2022-12-07T08:14:38;20.58;;;12.38;;
24461;SDS011;12631;50.860;5.714;2022-12-07T08:17:08;16.48;;;12.80;;
24461;SDS011;12631;50.860;5.714;2022-12-07T08:19:35;15.50;;;11.70;;
24461;SDS011;12631;50.860;5.714;2022-12-07T08:22:02;13.77;;;10.50;;
24461;SDS011;12631;50.860;5.714;2022-12-07T08:24:29;13.90;;;12.30;;
24461;SDS011;12631;50.860;5.714;2022-12-07T08:26:59;20.35;;;10.93;;
24461;SDS011;12631;50.860;5.714;2022-12-07T08:29:26;16.58;;;10.45;;
24461;SDS011;12631;50.860;5.714;2022-12-07T08:31:54;16.13;;;10.52;;
24461;SDS011;12631;50.860;5.714;2022-12-07T08:34:22;16.10;;;10.25;;
24461;SDS011;12631;50.860;5.714;2022-12-07T08:36:50;19.48;;;10.63;;
24461;SDS011;12631;50.860;5.714;2022-12-07T08:39:17;13.38;;;10.15;;
24461;SDS011;12631;50.860;5.714;2022-12-07T08:41:44;11.38;;;9.85;;
24461;SDS011;12631;50.860;5.714;2022-12-07T08:44:11;11.88;;;9.25;;
24461;SDS011;12631;50.860;5.714;2022-12-07T08:46:39;19.77;;;10.98;;
24461;SDS011;12631;50.860;5.714;2022-12-07T08:49:11;13.13;;;9.77;;
24461;SDS011;12631;50.860;5.714;2022-12-07T08:51:42;10.57;;;9.43;;
24461;SDS011;12631;50.860;5.714;2022-12-07T08:54:10;10.88;;;9.35;;
24461;SDS011;12631;50.860;5.714;2022-12-07T08:56:40;16.20;;;9.95;;
24461;SDS011;12631;50.860;5.714;2022-12-07T08:59:08;13.95;;;9.82;;
24461;SDS011;12631;50.860;5.714;2022-12-07T09:01:35;15.68;;;10.48;;
24461;SDS011;12631;50.860;5.714;2022-12-07T09:04:03;17.30;;;9.90;;
24461;SDS011;12631;50.860;5.714;2022-12-07T09:06:30;16.15;;;8.73;;
24461;SDS011;12631;50.860;5.714;2022-12-07T09:08:59;10.05;;;7.97;;
24461;SDS011;12631;50.860;5.714;2022-12-07T09:11:28;14.75;;;8.95;;
24461;SDS011;12631;50.860;5.714;2022-12-07T09:13:55;14.35;;;10.32;;
24461;SDS011;12631;50.860;5.714;2022-12-07T09:16:23;16.10;;;10.82;;
24461;SDS011;12631;50.860;5.714;2022-12-07T09:18:50;15.77;;;10.57;;
24461;SDS011;12631;50.860;5.714;2022-12-07T09:21:17;15.45;;;9.20;;
24461;SDS011;12631;50.860;5.714;2022-12-07T09:23:45;11.55;;;9.18;;
24461;SDS011;12631;50.860;5.714;2022-12-07T09:26:13;13.10;;;9.25;;
24461;SDS011;12631;50.860;5.714;2022-12-07T09:28:40;10.63;;;8.52;;
24461;SDS011;12631;50.860;5.714;2022-12-07T09:31:08;13.38;;;8.80;;
24461;SDS011;12631;50.860;5.714;2022-12-07T09:33:35;11.52;;;8.93;;
24461;SDS011;12631;50.860;5.714;2022-12-07T09:36:03;13.80;;;10.77;;
24461;SDS011;12631;50.860;5.714;2022-12-07T09:38:31;11.05;;;8.05;;
24461;SDS011;12631;50.860;5.714;2022-12-07T09:41:03;9.48;;;8.57;;
24461;SDS011;12631;50.860;5.714;2022-12-07T09:43:33;12.20;;;8.13;;
24461;SDS011;12631;50.860;5.714;2022-12-07T09:46:03;13.20;;;8.30;;
24461;SDS011;12631;50.860;5.714;2022-12-07T09:48:31;8.93;;;7.53;;
24461;SDS011;12631;50.860;5.714;2022-12-07T09:51:02;8.95;;;8.10;;
24461;SDS011;12631;50.860;5.714;2022-12-07T09:53:37;7.43;;;6.72;;
24461;SDS011;12631;50.860;5.714;2022-12-07T09:56:05;8.85;;;7.55;;
24461;SDS011;12631;50.860;5.714;2022-12-07T09:58:34;9.35;;;7.63;;
24461;SDS011;12631;50.860;5.714;2022-12-07T10:01:05;12.15;;;7.45;;
24461;SDS011;12631;50.860;5.714;2022-12-07T10:03:39;8.25;;;6.90;;
24461;SDS011;12631;50.860;5.714;2022-12-07T10:06:09;8.35;;;7.43;;
24461;SDS011;12631;50.860;5.714;2022-12-07T10:08:39;10.73;;;7.45;;
24461;SDS011;12631;50.860;5.714;2022-12-07T10:11:09;9.50;;;7.97;;
24461;SDS011;12631;50.860;5.714;2022-12-07T10:13:39;8.52;;;7.57;;
24461;SDS011;12631;50.860;5.714;2022-12-07T10:16:16;10.77;;;8.18;;
24461;SDS011;12631;50.860;5.714;2022-12-07T10:19:17;15.88;;;8.93;;
24461;SDS011;12631;50.860;5.714;2022-12-07T10:24:37;17.55;;;6.78;;
24461;SDS011;12631;50.860;5.714;2022-12-07T10:27:12;6.90;;;6.25;;
24461;SDS011;12631;50.860;5.714;2022-12-07T10:29:51;7.35;;;6.72;;
24461;SDS011;12631;50.860;5.714;2022-12-07T10:32:28;10.05;;;6.28;;
24461;SDS011;12631;50.860;5.714;2022-12-07T10:35:18;10.00;;;6.93;;
24461;SDS011;12631;50.860;5.714;2022-12-07T10:37:48;7.10;;;6.22;;
24461;SDS011;12631;50.860;5.714;2022-12-07T10:40:27;7.97;;;5.90;;
24461;SDS011;12631;50.860;5.714;2022-12-07T10:43:05;10.13;;;6.60;;
24461;SDS011;12631;50.860;5.714;2022-12-07T10:45:54;6.07;;;5.57;;
24461;SDS011;12631;50.860;5.714;2022-12-07T10:48:35;9.13;;;6.18;;
24461;SDS011;12631;50.860;5.714;2022-12-07T10:51:11;6.88;;;6.10;;
24461;SDS011;12631;50.860;5.714;2022-12-07T10:53:51;13.48;;;6.72;;
24461;SDS011;12631;50.860;5.714;2022-12-07T10:59:25;8.15;;;6.20;;
24461;SDS011;12631;50.860;5.714;2022-12-07T11:02:09;9.98;;;6.97;;
24461;SDS011;12631;50.860;5.714;2022-12-07T11:04:54;7.40;;;5.95;;
24461;SDS011;12631;50.860;5.714;2022-12-07T11:07:34;6.88;;;6.00;;
24461;SDS011;12631;50.860;5.714;2022-12-07T11:10:11;8.32;;;5.82;;
24461;SDS011;12631;50.860;5.714;2022-12-07T11:12:47;7.25;;;4.80;;
24461;SDS011;12631;50.860;5.714;2022-12-07T11:15:26;7.47;;;4.88;;
24461;SDS011;12631;50.860;5.714;2022-12-07T11:18:01;7.75;;;4.55;;
24461;SDS011;12631;50.860;5.714;2022-12-07T11:20:39;6.57;;;4.60;;
24461;SDS011;12631;50.860;5.714;2022-12-07T11:23:15;4.95;;;4.45;;
24461;SDS011;12631;50.860;5.714;2022-12-07T11:25:49;7.88;;;4.63;;
24461;SDS011;12631;50.860;5.714;2022-12-07T11:28:28;7.85;;;4.05;;
24461;SDS011;12631;50.860;5.714;2022-12-07T11:31:08;4.57;;;3.78;;
24461;SDS011;12631;50.860;5.714;2022-12-07T11:33:45;6.07;;;4.18;;
24461;SDS011;12631;50.860;5.714;2022-12-07T11:36:21;7.88;;;4.55;;
24461;SDS011;12631;50.860;5.714;2022-12-07T11:38:59;4.72;;;4.03;;
24461;SDS011;12631;50.860;5.714;2022-12-07T11:41:30;5.28;;;4.50;;
24461;SDS011;12631;50.860;5.714;2022-12-07T11:44:02;6.82;;;4.65;;
24461;SDS011;12631;50.860;5.714;2022-12-07T11:46:38;4.20;;;3.88;;
24461;SDS011;12631;50.860;5.714;2022-12-07T11:49:15;8.18;;;4.82;;
24461;SDS011;12631;50.860;5.714;2022-12-07T11:51:53;4.20;;;3.80;;
24461;SDS011;12631;50.860;5.714;2022-12-07T11:54:26;4.70;;;4.10;;
24461;SDS011;12631;50.860;5.714;2022-12-07T11:56:56;6.03;;;4.18;;
24461;SDS011;12631;50.860;5.714;2022-12-07T11:59:31;7.97;;;4.30;;
24461;SDS011;12631;50.860;5.714;2022-12-07T12:02:10;5.68;;;4.40;;
24461;SDS011;12631;50.860;5.714;2022-12-07T12:04:45;7.10;;;4.28;;
24461;SDS011;12631;50.860;5.714;2022-12-07T12:07:21;4.43;;;4.13;;
24461;SDS011;12631;50.860;5.714;2022-12-07T12:09:51;4.53;;;4.03;;
24461;SDS011;12631;50.860;5.714;2022-12-07T12:12:24;6.07;;;4.18;;
24461;SDS011;12631;50.860;5.714;2022-12-07T12:15:28;6.30;;;3.65;;
24461;SDS011;12631;50.860;5.714;2022-12-07T12:18:17;9.52;;;4.47;;
24461;SDS011;12631;50.860;5.714;2022-12-07T12:21:06;4.18;;;3.88;;
24461;SDS011;12631;50.860;5.714;2022-12-07T12:26:08;9.65;;;3.42;;
24461;SDS011;12631;50.860;5.714;2022-12-07T12:28:48;5.15;;;4.65;;
24461;SDS011;12631;50.860;5.714;2022-12-07T12:31:29;6.18;;;5.07;;
24461;SDS011;12631;50.860;5.714;2022-12-07T12:34:02;10.43;;;4.93;;
24461;SDS011;12631;50.860;5.714;2022-12-07T12:36:45;6.13;;;4.35;;
24461;SDS011;12631;50.860;5.714;2022-12-07T12:39:14;5.13;;;4.72;;
24461;SDS011;12631;50.860;5.714;2022-12-07T12:41:59;8.52;;;4.43;;
24461;SDS011;12631;50.860;5.714;2022-12-07T12:44:40;13.02;;;4.28;;
24461;SDS011;12631;50.860;5.714;2022-12-07T12:50:27;5.22;;;4.70;;
24461;SDS011;12631;50.860;5.714;2022-12-07T12:53:05;6.07;;;5.45;;
24461;SDS011;12631;50.860;5.714;2022-12-07T12:58:43;6.78;;;4.57;;
24461;SDS011;12631;50.860;5.714;2022-12-07T13:07:04;6.28;;;4.38;;
24461;SDS011;12631;50.860;5.714;2022-12-07T13:09:36;7.72;;;4.32;;
24461;SDS011;12631;50.860;5.714;2022-12-07T13:12:13;4.47;;;4.07;;
24461;SDS011;12631;50.860;5.714;2022-12-07T13:14:52;5.03;;;3.80;;
24461;SDS011;12631;50.860;5.714;2022-12-07T13:20:40;15.48;;;3.95;;
24461;SDS011;12631;50.860;5.714;2022-12-07T13:23:19;5.28;;;3.45;;
24461;SDS011;12631;50.860;5.714;2022-12-07T13:25:56;5.18;;;3.38;;
24461;SDS011;12631;50.860;5.714;2022-12-07T13:28:42;6.13;;;4.03;;
24461;SDS011;12631;50.860;5.714;2022-12-07T13:31:18;8.40;;;3.85;;
24461;SDS011;12631;50.860;5.714;2022-12-07T13:33:59;3.80;;;3.40;;
24461;SDS011;12631;50.860;5.714;2022-12-07T13:36:27;3.00;;;2.70;;
24461;SDS011;12631;50.860;5.714;2022-12-07T13:39:11;3.33;;;3.08;;
24461;SDS011;12631;50.860;5.714;2022-12-07T13:41:50;5.78;;;3.75;;
24461;SDS011;12631;50.860;5.714;2022-12-07T13:44:19;5.28;;;2.75;;
24461;SDS011;12631;50.860;5.714;2022-12-07T13:46:49;5.07;;;3.55;;
24461;SDS011;12631;50.860;5.714;2022-12-07T13:49:22;6.35;;;4.25;;
24461;SDS011;12631;50.860;5.714;2022-12-07T13:51:51;5.90;;;3.60;;
24461;SDS011;12631;50.860;5.714;2022-12-07T13:54:20;2.67;;;2.47;;
24461;SDS011;12631;50.860;5.714;2022-12-07T13:56:51;3.42;;;2.42;;
24461;SDS011;12631;50.860;5.714;2022-12-07T13:59:20;3.75;;;3.45;;
24461;SDS011;12631;50.860;5.714;2022-12-07T14:01:49;3.10;;;2.80;;
24461;SDS011;12631;50.860;5.714;2022-12-07T14:04:19;3.08;;;2.55;;
24461;SDS011;12631;50.860;5.714;2022-12-07T14:06:57;7.78;;;2.97;;
24461;SDS011;12631;50.860;5.714;2022-12-07T14:09:27;6.13;;;3.47;;
24461;SDS011;12631;50.860;5.714;2022-12-07T14:11:57;4.45;;;3.05;;
24461;SDS011;12631;50.860;5.714;2022-12-07T14:14:25;4.28;;;3.25;;
24461;SDS011;12631;50.860;5.714;2022-12-07T14:16:57;6.75;;;3.22;;
24461;SDS011;12631;50.860;5.714;2022-12-07T14:19:46;5.63;;;3.25;;
24461;SDS011;12631;50.860;5.714;2022-12-07T14:22:23;5.40;;;3.63;;
24461;SDS011;12631;50.860;5.714;2022-12-07T14:24:58;6.10;;;3.63;;
24461;SDS011;12631;50.860;5.714;2022-12-07T14:27:48;5.40;;;2.78;;
24461;SDS011;12631;50.860;5.714;2022-12-07T14:30:21;5.50;;;3.28;;
24461;SDS011;12631;50.860;5.714;2022-12-07T14:32:51;5.68;;;2.45;;
24461;SDS011;12631;50.860;5.714;2022-12-07T14:35:20;3.55;;;2.38;;
24461;SDS011;12631;50.860;5.714;2022-12-07T14:37:47;2.70;;;1.42;;
24461;SDS011;12631;50.860;5.714;2022-12-07T14:40:16;2.72;;;1.58;;
24461;SDS011;12631;50.860;5.714;2022-12-07T14:42:46;6.13;;;1.70;;
24461;SDS011;12631;50.860;5.714;2022-12-07T14:45:18;4.07;;;1.85;;
